Time;durP1;ratioP1;P1;durP2;ratioP2;P2;SDS_P1;SDS_P2;PMS_P1;PMS_P2;Temp;Humidity;BMP_temperature;BMP_pressure;BME280_temperature;BME280_humidity;BME280_pressure;Samples;Min_cycle;Max_cycle;Signal;HPM_P1;HPM_P2
2021/01/03 00:02:00;;;;;;;36.60;17.10;;;;;;;;;;10453572;28;20189;-71
2021/01/03 00:07:03;;;;;;;39.97;16.33;;;;;;;;;;10457177;28;20235;-69
2021/01/03 00:12:05;;;;;;;32.53;14.33;;;;;;;;;;10461819;28;20246;-71
2021/01/03 00:17:08;;;;;;;31.73;14.73;;;;;;;;;;10435971;28;20725;-73
2021/01/03 00:22:09;;;;;;;31.40;14.73;;;;;;;;;;10458270;28;20217;-71
2021/01/03 00:27:11;;;;;;;37.33;15.73;;;;;;;;;;10461036;28;20217;-73
2021/01/03 00:32:14;;;;;;;38.43;16.53;;;;;;;;;;10434760;28;20185;-70
2021/01/03 00:37:15;;;;;;;36.70;15.93;;;;;;;;;;10456134;28;20231;-71
2021/01/03 00:42:17;;;;;;;39.77;18.07;;;;;;;;;;10449938;28;20280;-71
2021/01/03 00:47:20;;;;;;;38.10;16.23;;;;;;;;;;10462109;28;20247;-72
2021/01/03 00:52:22;;;;;;;42.33;16.73;;;;;;;;;;10461052;28;20554;-73
2021/01/03 00:57:24;;;;;;;38.57;17.10;;;;;;;;;;10463400;28;20215;-73
2021/01/03 01:02:26;;;;;;;38.63;16.40;;;;;;;;;;10437088;28;20288;-72
2021/01/03 01:07:28;;;;;;;43.43;17.87;;;;;;;;;;10453206;28;20255;-71
2021/01/03 01:12:30;;;;;;;36.43;16.83;;;;;;;;;;10450807;28;20217;-72
2021/01/03 01:17:32;;;;;;;34.93;15.27;;;;;;;;;;10454073;28;20216;-73
2021/01/03 01:22:34;;;;;;;40.33;16.13;;;;;;;;;;10449855;28;20284;-72
2021/01/03 01:27:35;;;;;;;38.77;16.83;;;;;;;;;;10458265;28;20209;-72
2021/01/03 01:32:39;;;;;;;39.70;16.30;;;;;;;;;;10433128;28;20196;-72
2021/01/03 01:37:41;;;;;;;37.53;15.07;;;;;;;;;;10451263;28;20209;-72
2021/01/03 01:42:43;;;;;;;37.77;14.60;;;;;;;;;;10455721;28;20190;-71
2021/01/03 01:47:47;;;;;;;39.57;16.50;;;;;;;;;;10444491;28;20213;-69
2021/01/03 01:52:50;;;;;;;40.17;14.97;;;;;;;;;;10465922;28;20201;-71
2021/01/03 01:57:57;;;;;;;37.70;15.00;;;;;;;;;;10444148;28;20529;-72
2021/01/03 02:03:02;;;;;;;31.03;12.03;;;;;;;;;;10458056;28;20207;-72
2021/01/03 02:08:07;;;;;;;41.73;16.33;;;;;;;;;;10454331;28;20217;-72
2021/01/03 02:13:11;;;;;;;33.70;14.20;;;;;;;;;;10459005;28;20204;-71
2021/01/03 02:18:14;;;;;;;38.70;15.60;;;;;;;;;;10451544;28;20224;-72
2021/01/03 02:23:18;;;;;;;24.80;10.67;;;;;;;;;;10449213;28;21021;-70
2021/01/03 02:28:23;;;;;;;27.53;11.57;;;;;;;;;;10450931;28;20240;-70
2021/01/03 02:33:25;;;;;;;32.50;13.17;;;;;;;;;;10430109;28;20542;-71
2021/01/03 02:38:28;;;;;;;24.50;10.20;;;;;;;;;;10443006;28;20291;-73
2021/01/03 02:43:31;;;;;;;22.03;8.77;;;;;;;;;;10449578;28;20224;-72
2021/01/03 02:48:32;;;;;;;32.73;12.47;;;;;;;;;;10444259;28;20209;-72
2021/01/03 02:53:34;;;;;;;32.17;12.37;;;;;;;;;;10448178;28;20284;-71
2021/01/03 02:58:36;;;;;;;29.80;10.20;;;;;;;;;;10449780;28;20201;-70
2021/01/03 03:03:38;;;;;;;33.63;10.23;;;;;;;;;;10457386;28;20630;-71
2021/01/03 03:08:40;;;;;;;32.00;11.67;;;;;;;;;;10442565;28;20212;-70
2021/01/03 03:13:43;;;;;;;33.57;13.67;;;;;;;;;;10446451;28;20197;-70
2021/01/03 03:18:44;;;;;;;40.40;14.80;;;;;;;;;;10433887;28;20262;-71
2021/01/03 03:23:46;;;;;;;30.53;12.73;;;;;;;;;;10435389;28;20254;-71
2021/01/03 03:28:48;;;;;;;39.30;16.10;;;;;;;;;;10462807;28;20306;-70
2021/01/03 03:33:50;;;;;;;36.93;14.03;;;;;;;;;;10461432;28;20630;-72
2021/01/03 03:38:52;;;;;;;24.70;10.07;;;;;;;;;;10461996;28;20181;-70
2021/01/03 03:43:54;;;;;;;24.03;9.40;;;;;;;;;;10454296;28;20219;-71
2021/01/03 03:48:56;;;;;;;36.20;14.77;;;;;;;;;;10464462;28;20201;-73
2021/01/03 03:53:58;;;;;;;35.00;13.77;;;;;;;;;;10454624;28;20236;-72
2021/01/03 03:59:00;;;;;;;29.27;11.40;;;;;;;;;;10461219;28;20204;-71
2021/01/03 04:04:02;;;;;;;31.60;11.80;;;;;;;;;;10431919;28;20807;-71
2021/01/03 04:09:04;;;;;;;36.27;13.57;;;;;;;;;;10451644;28;20258;-72
2021/01/03 04:14:07;;;;;;;33.57;13.13;;;;;;;;;;10460393;28;20304;-74
2021/01/03 04:19:08;;;;;;;14.00;4.60;;;;;;;;;;10458203;28;20189;-72
2021/01/03 04:24:10;;;;;;;33.30;12.13;;;;;;;;;;10423680;28;20630;-76
2021/01/03 04:29:18;;;;;;;32.40;11.43;;;;;;;;;;10461428;28;20225;-72
2021/01/03 04:34:20;;;;;;;38.10;15.17;;;;;;;;;;10458227;28;20626;-71
2021/01/03 04:39:22;;;;;;;36.57;13.67;;;;;;;;;;10462424;28;20189;-72
2021/01/03 04:44:30;;;;;;;28.40;10.37;;;;;;;;;;10458218;28;20293;-70
2021/01/03 04:49:36;;;;;;;30.40;10.97;;;;;;;;;;10454075;28;20368;-74
2021/01/03 04:54:48;;;;;;;20.73;8.37;;;;;;;;;;10451135;28;20216;-74
2021/01/03 04:59:52;;;;;;;33.33;12.47;;;;;;;;;;10456329;28;20689;-73
2021/01/03 05:04:58;;;;;;;34.97;14.17;;;;;;;;;;10439915;28;20275;-73
2021/01/03 05:10:06;;;;;;;29.13;11.90;;;;;;;;;;10441281;28;20698;-72
2021/01/03 05:15:11;;;;;;;34.33;13.63;;;;;;;;;;10453641;28;20281;-73
2021/01/03 05:20:13;;;;;;;32.30;13.33;;;;;;;;;;10459740;28;20715;-71
2021/01/03 05:25:17;;;;;;;33.10;12.37;;;;;;;;;;10453884;28;20279;-71
2021/01/03 05:30:27;;;;;;;39.00;14.80;;;;;;;;;;10451383;28;20205;-71
2021/01/03 05:35:34;;;;;;;25.00;8.80;;;;;;;;;;10448435;28;20208;-73
2021/01/03 05:40:37;;;;;;;18.83;6.77;;;;;;;;;;10454226;28;20189;-72
2021/01/03 05:45:44;;;;;;;31.97;11.33;;;;;;;;;;10449719;28;20224;-71
2021/01/03 05:50:46;;;;;;;35.80;15.00;;;;;;;;;;10449221;28;20299;-73
2021/01/03 05:55:52;;;;;;;34.90;15.53;;;;;;;;;;10451652;28;20231;-73
2021/01/03 06:00:55;;;;;;;39.70;15.77;;;;;;;;;;10450372;28;20599;-71
2021/01/03 06:06:01;;;;;;;32.77;13.13;;;;;;;;;;10452279;28;20236;-71
2021/01/03 06:11:11;;;;;;;36.13;14.30;;;;;;;;;;10445986;28;20235;-74
2021/01/03 06:16:14;;;;;;;39.67;16.40;;;;;;;;;;10439647;28;20204;-70
2021/01/03 06:21:21;;;;;;;33.97;14.10;;;;;;;;;;10457601;28;20212;-72
2021/01/03 06:26:24;;;;;;;37.87;15.47;;;;;;;;;;10448298;28;20723;-72
2021/01/03 06:31:41;;;;;;;35.60;14.07;;;;;;;;;;10458797;28;20237;-74
2021/01/03 06:36:47;;;;;;;36.03;15.27;;;;;;;;;;10449204;28;20749;-73
2021/01/03 06:41:53;;;;;;;38.73;16.97;;;;;;;;;;10447074;28;20189;-71
2021/01/03 06:47:05;;;;;;;35.03;15.53;;;;;;;;;;10445960;28;20744;-73
2021/01/03 06:52:22;;;;;;;33.50;14.00;;;;;;;;;;10449715;28;20204;-72
2021/01/03 06:57:48;;;;;;;36.43;15.90;;;;;;;;;;10428191;28;20849;-72
2021/01/03 07:02:54;;;;;;;35.47;13.93;;;;;;;;;;10437875;28;20195;-72
2021/01/03 07:08:01;;;;;;;34.57;15.57;;;;;;;;;;10430503;28;20614;-72
2021/01/03 07:13:24;;;;;;;27.80;12.10;;;;;;;;;;10438598;28;20223;-72
2021/01/03 07:18:34;;;;;;;30.13;13.00;;;;;;;;;;10450312;28;20212;-72
2021/01/03 07:23:36;;;;;;;32.90;14.90;;;;;;;;;;10447045;28;20598;-72
2021/01/03 07:28:38;;;;;;;33.70;14.40;;;;;;;;;;10442131;28;20232;-72
2021/01/03 07:33:46;;;;;;;31.33;13.50;;;;;;;;;;10452021;28;20688;-73
2021/01/03 07:39:06;;;;;;;33.63;14.53;;;;;;;;;;10437149;28;20189;-72
2021/01/03 07:44:09;;;;;;;29.53;14.00;;;;;;;;;;10437746;28;20321;-73
2021/01/03 07:49:25;;;;;;;26.27;9.93;;;;;;;;;;10446082;28;20217;-72
2021/01/03 07:54:27;;;;;;;27.33;12.97;;;;;;;;;;10444210;28;20223;-71
2021/01/03 07:59:28;;;;;;;26.87;11.77;;;;;;;;;;10418518;28;20325;-72
2021/01/03 08:04:32;;;;;;;29.03;13.63;;;;;;;;;;10416633;28;20535;-72
2021/01/03 08:09:34;;;;;;;27.63;10.53;;;;;;;;;;10441010;28;20269;-73
2021/01/03 08:14:37;;;;;;;30.77;13.03;;;;;;;;;;10431672;28;20220;-72
2021/01/03 08:19:41;;;;;;;31.60;11.97;;;;;;;;;;10444013;28;20182;-73
2021/01/03 08:24:51;;;;;;;29.70;13.70;;;;;;;;;;10452481;28;20504;-73
2021/01/03 08:29:58;;;;;;;29.37;12.33;;;;;;;;;;10456168;28;20699;-72
2021/01/03 08:35:01;;;;;;;35.07;13.67;;;;;;;;;;10466228;28;20238;-71
2021/01/03 08:40:11;;;;;;;27.60;12.10;;;;;;;;;;10448541;28;20212;-72
2021/01/03 08:45:17;;;;;;;30.40;13.33;;;;;;;;;;10449386;28;20575;-73
2021/01/03 08:50:21;;;;;;;29.00;13.00;;;;;;;;;;10452258;28;20282;-72
2021/01/03 08:55:23;;;;;;;28.63;12.87;;;;;;;;;;10447774;28;20287;-70
2021/01/03 09:00:28;;;;;;;30.33;12.97;;;;;;;;;;10446856;28;20207;-71
2021/01/03 09:05:33;;;;;;;31.53;12.77;;;;;;;;;;10444980;28;20498;-72
2021/01/03 09:10:36;;;;;;;28.47;11.83;;;;;;;;;;10447540;28;20326;-71
2021/01/03 09:15:39;;;;;;;25.30;12.20;;;;;;;;;;10456131;28;20221;-71
2021/01/03 09:20:43;;;;;;;28.83;13.67;;;;;;;;;;10443271;28;20201;-73
2021/01/03 09:25:50;;;;;;;24.80;11.73;;;;;;;;;;10455075;28;20291;-71
2021/01/03 09:30:52;;;;;;;30.50;13.50;;;;;;;;;;10446959;28;20212;-71
2021/01/03 09:36:00;;;;;;;26.93;11.97;;;;;;;;;;10452668;28;20304;-71
2021/01/03 09:41:10;;;;;;;27.77;12.43;;;;;;;;;;10446574;28;20180;-69
2021/01/03 09:46:16;;;;;;;27.23;12.33;;;;;;;;;;10447413;28;20300;-71
2021/01/03 09:51:33;;;;;;;28.07;12.57;;;;;;;;;;10451900;28;20229;-73
2021/01/03 09:56:35;;;;;;;29.37;13.47;;;;;;;;;;10448195;28;20216;-72
2021/01/03 10:01:37;;;;;;;26.77;10.73;;;;;;;;;;10454018;28;20625;-73
2021/01/03 10:06:42;;;;;;;25.33;12.13;;;;;;;;;;10455520;28;21283;-72
2021/01/03 10:11:44;;;;;;;22.37;9.57;;;;;;;;;;10450973;28;20259;-73
2021/01/03 10:16:45;;;;;;;24.33;8.90;;;;;;;;;;10436671;28;20239;-73
2021/01/03 10:21:48;;;;;;;19.57;8.93;;;;;;;;;;10451022;28;20186;-72
2021/01/03 10:27:13;;;;;;;25.30;12.57;;;;;;;;;;10446296;28;20210;-72
2021/01/03 10:32:15;;;;;;;27.53;12.30;;;;;;;;;;10429243;28;20300;-72
2021/01/03 10:37:17;;;;;;;26.80;12.30;;;;;;;;;;10461612;28;20724;-73
2021/01/03 10:42:19;;;;;;;24.50;10.00;;;;;;;;;;10432875;28;20188;-73
2021/01/03 10:47:20;;;;;;;27.30;13.83;;;;;;;;;;10452957;28;20247;-72
2021/01/03 10:52:23;;;;;;;28.33;12.23;;;;;;;;;;10442562;28;20252;-70
2021/01/03 10:57:24;;;;;;;27.83;12.50;;;;;;;;;;10448405;28;20216;-71
2021/01/03 11:02:26;;;;;;;26.40;11.73;;;;;;;;;;10442892;28;20208;-70
2021/01/03 11:07:29;;;;;;;31.03;12.57;;;;;;;;;;10423107;28;20308;-72
2021/01/03 11:12:31;;;;;;;24.50;12.13;;;;;;;;;;10434768;28;20307;-70
2021/01/03 11:17:33;;;;;;;24.33;11.37;;;;;;;;;;10454259;28;20262;-70
2021/01/03 11:22:35;;;;;;;28.93;12.10;;;;;;;;;;10427584;28;20181;-72
2021/01/03 11:27:37;;;;;;;25.83;12.03;;;;;;;;;;10451012;28;20208;-73
2021/01/03 11:32:42;;;;;;;22.30;10.43;;;;;;;;;;10446481;28;20213;-73
2021/01/03 11:37:47;;;;;;;25.23;12.37;;;;;;;;;;10425250;28;20292;-72
2021/01/03 11:42:48;;;;;;;24.17;12.43;;;;;;;;;;10444042;28;20198;-70
2021/01/03 11:47:50;;;;;;;27.73;12.40;;;;;;;;;;10437133;28;20239;-71
2021/01/03 11:52:53;;;;;;;26.53;12.40;;;;;;;;;;10438830;28;20205;-72
2021/01/03 11:57:54;;;;;;;25.53;13.00;;;;;;;;;;10441784;28;20494;-72
2021/01/03 12:02:56;;;;;;;28.97;12.93;;;;;;;;;;10434317;28;20193;-71
2021/01/03 12:07:58;;;;;;;23.67;11.30;;;;;;;;;;10414161;28;20233;-72
2021/01/03 12:13:00;;;;;;;23.77;11.23;;;;;;;;;;10453710;28;20228;-72
2021/01/03 12:18:03;;;;;;;22.10;10.77;;;;;;;;;;10455518;28;20205;-71
2021/01/03 12:23:06;;;;;;;22.70;11.10;;;;;;;;;;10451942;28;20185;-70
2021/01/03 12:28:07;;;;;;;22.87;11.03;;;;;;;;;;10447965;28;20709;-69
2021/01/03 12:33:09;;;;;;;23.23;10.87;;;;;;;;;;10461485;28;20291;-71
2021/01/03 12:38:11;;;;;;;23.17;10.77;;;;;;;;;;10460645;28;20614;-70
2021/01/03 12:43:13;;;;;;;18.93;9.83;;;;;;;;;;10454736;28;20221;-72
2021/01/03 12:48:14;;;;;;;20.37;9.73;;;;;;;;;;10462602;28;20228;-70
2021/01/03 12:53:17;;;;;;;20.93;10.13;;;;;;;;;;10449711;28;20215;-71
2021/01/03 12:58:18;;;;;;;21.03;10.57;;;;;;;;;;10442663;28;20315;-73
2021/01/03 13:03:20;;;;;;;19.23;9.87;;;;;;;;;;10468860;28;20676;-71
2021/01/03 13:08:22;;;;;;;18.13;9.20;;;;;;;;;;10460026;28;20216;-72
2021/01/03 13:13:24;;;;;;;19.03;9.57;;;;;;;;;;10449129;28;20196;-72
2021/01/03 13:18:26;;;;;;;20.90;9.53;;;;;;;;;;10460579;28;20211;-72
2021/01/03 13:23:28;;;;;;;22.07;9.67;;;;;;;;;;10455868;28;20196;-73
2021/01/03 13:28:30;;;;;;;18.80;9.07;;;;;;;;;;10454610;28;20220;-70
2021/01/03 13:33:32;;;;;;;19.47;8.47;;;;;;;;;;10454010;28;20197;-73
2021/01/03 13:38:35;;;;;;;18.80;8.40;;;;;;;;;;10455963;28;20220;-73
2021/01/03 13:43:37;;;;;;;17.63;8.60;;;;;;;;;;10446736;28;20275;-73
2021/01/03 13:48:39;;;;;;;20.50;9.20;;;;;;;;;;10459843;28;20209;-72
2021/01/03 13:53:41;;;;;;;23.00;9.60;;;;;;;;;;10446455;28;20606;-73
2021/01/03 13:58:43;;;;;;;19.97;8.23;;;;;;;;;;10447132;28;20217;-72
2021/01/03 14:03:44;;;;;;;20.03;9.77;;;;;;;;;;10455371;28;20296;-72
2021/01/03 14:08:47;;;;;;;20.67;9.10;;;;;;;;;;10457603;28;20209;-73
2021/01/03 14:13:48;;;;;;;20.30;9.07;;;;;;;;;;10452911;28;20254;-73
2021/01/03 14:18:50;;;;;;;19.40;9.37;;;;;;;;;;10460587;28;20193;-70
2021/01/03 14:23:53;;;;;;;21.93;9.47;;;;;;;;;;10451204;28;20648;-72
2021/01/03 14:29:03;;;;;;;21.50;9.43;;;;;;;;;;10443125;28;20283;-71
2021/01/03 14:34:13;;;;;;;22.73;8.67;;;;;;;;;;10454696;28;20270;-73
2021/01/03 14:39:19;;;;;;;20.43;9.00;;;;;;;;;;10450109;28;20189;-73
2021/01/03 14:44:25;;;;;;;18.43;8.10;;;;;;;;;;10454154;28;20376;-73
2021/01/03 14:49:38;;;;;;;18.97;8.63;;;;;;;;;;10447979;28;20215;-71
2021/01/03 14:54:43;;;;;;;19.97;8.80;;;;;;;;;;10449062;28;20572;-71
2021/01/03 14:59:49;;;;;;;20.73;8.03;;;;;;;;;;10450633;28;20189;-72
2021/01/03 15:04:51;;;;;;;18.80;8.70;;;;;;;;;;10447116;28;20380;-73
2021/01/03 15:09:55;;;;;;;17.60;8.30;;;;;;;;;;10452456;28;20239;-73
2021/01/03 15:14:56;;;;;;;17.97;8.40;;;;;;;;;;10453439;28;20613;-73
2021/01/03 15:20:02;;;;;;;16.87;7.60;;;;;;;;;;10456426;28;20280;-73
2021/01/03 15:25:09;;;;;;;17.50;8.57;;;;;;;;;;10453790;28;20201;-73
2021/01/03 15:30:13;;;;;;;15.10;6.90;;;;;;;;;;10461058;28;20472;-73
2021/01/03 15:35:17;;;;;;;17.33;7.47;;;;;;;;;;10464631;28;20209;-73
2021/01/03 15:40:22;;;;;;;18.43;7.93;;;;;;;;;;10457225;28;20276;-72
2021/01/03 15:45:27;;;;;;;14.43;7.20;;;;;;;;;;10449360;28;20232;-72
2021/01/03 15:50:29;;;;;;;14.37;7.67;;;;;;;;;;10452546;28;20217;-72
2021/01/03 15:55:31;;;;;;;14.97;6.83;;;;;;;;;;10459842;28;20223;-72
2021/01/03 16:00:33;;;;;;;13.67;6.23;;;;;;;;;;10448840;28;20193;-71
2021/01/03 16:05:37;;;;;;;15.40;7.20;;;;;;;;;;10448847;28;20745;-70
2021/01/03 16:10:39;;;;;;;19.60;8.33;;;;;;;;;;10453608;28;20283;-72
2021/01/03 16:15:43;;;;;;;19.60;8.30;;;;;;;;;;10451373;28;20568;-71
2021/01/03 16:20:45;;;;;;;16.73;7.83;;;;;;;;;;10450697;28;20721;-71
2021/01/03 16:25:53;;;;;;;19.23;9.10;;;;;;;;;;10449787;28;20236;-70
2021/01/03 16:30:59;;;;;;;20.40;8.77;;;;;;;;;;10443267;28;20296;-72
2021/01/03 16:36:07;;;;;;;19.00;8.57;;;;;;;;;;10449372;28;20312;-72
2021/01/03 16:41:14;;;;;;;17.30;8.13;;;;;;;;;;10443408;28;20271;-72
2021/01/03 16:46:21;;;;;;;17.33;8.80;;;;;;;;;;10441638;28;20209;-71
2021/01/03 16:51:24;;;;;;;18.07;8.13;;;;;;;;;;10447099;28;20200;-71
2021/01/03 16:56:34;;;;;;;18.63;8.47;;;;;;;;;;10451890;28;20221;-70
2021/01/03 17:01:36;;;;;;;18.17;8.53;;;;;;;;;;10443633;28;20574;-72
2021/01/03 17:06:43;;;;;;;18.50;8.13;;;;;;;;;;10443556;28;20568;-72
2021/01/03 17:11:48;;;;;;;18.33;9.07;;;;;;;;;;10444960;28;20213;-72
2021/01/03 17:16:53;;;;;;;18.37;8.73;;;;;;;;;;10420568;28;20565;-73
2021/01/03 17:21:59;;;;;;;18.73;8.80;;;;;;;;;;10442531;28;20268;-72
2021/01/03 17:27:14;;;;;;;19.50;9.53;;;;;;;;;;10434248;28;20260;-73
2021/01/03 17:32:32;;;;;;;18.60;9.27;;;;;;;;;;10447080;28;20288;-72
2021/01/03 17:37:41;;;;;;;20.57;9.53;;;;;;;;;;10434966;28;20309;-72
2021/01/03 17:42:45;;;;;;;19.37;10.30;;;;;;;;;;10397280;28;20670;-70
2021/01/03 17:47:49;;;;;;;18.50;9.87;;;;;;;;;;10441961;28;20299;-74
2021/01/03 17:52:58;;;;;;;19.97;9.40;;;;;;;;;;10437081;28;20326;-72
2021/01/03 17:58:01;;;;;;;19.83;9.57;;;;;;;;;;10438988;28;20291;-72
2021/01/03 18:03:07;;;;;;;18.13;8.73;;;;;;;;;;10439689;28;20213;-73
2021/01/03 18:08:09;;;;;;;20.17;9.97;;;;;;;;;;10455638;28;20367;-73
2021/01/03 18:13:12;;;;;;;19.53;9.57;;;;;;;;;;10455456;28;20596;-70
2021/01/03 18:18:14;;;;;;;20.30;9.83;;;;;;;;;;10459367;28;20224;-71
2021/01/03 18:23:15;;;;;;;18.47;9.67;;;;;;;;;;10427334;28;20181;-72
2021/01/03 18:28:17;;;;;;;22.27;10.17;;;;;;;;;;10451069;28;20234;-71
2021/01/03 18:33:20;;;;;;;19.40;9.57;;;;;;;;;;10424224;28;20212;-69
2021/01/03 18:38:21;;;;;;;20.90;9.27;;;;;;;;;;10429095;28;20254;-71
2021/01/03 18:43:24;;;;;;;20.10;9.70;;;;;;;;;;10450852;28;20673;-71
2021/01/03 18:48:25;;;;;;;19.67;9.90;;;;;;;;;;10428997;28;20204;-72
2021/01/03 18:53:27;;;;;;;18.30;9.13;;;;;;;;;;10435975;28;20205;-72
2021/01/03 18:58:31;;;;;;;18.37;8.87;;;;;;;;;;10435509;28;20271;-71
2021/01/03 19:03:32;;;;;;;19.20;9.50;;;;;;;;;;10442631;28;20231;-74
2021/01/03 19:08:34;;;;;;;21.70;10.13;;;;;;;;;;10436019;28;20297;-73
2021/01/03 19:13:36;;;;;;;21.13;9.30;;;;;;;;;;10444432;28;20710;-73
2021/01/03 19:18:39;;;;;;;19.23;9.93;;;;;;;;;;10446035;28;20287;-73
2021/01/03 19:23:40;;;;;;;20.20;9.93;;;;;;;;;;10454239;28;20713;-72
2021/01/03 19:28:43;;;;;;;22.43;11.13;;;;;;;;;;10426811;28;20193;-73
2021/01/03 19:33:46;;;;;;;19.97;10.03;;;;;;;;;;10429122;28;20297;-74
2021/01/03 19:38:47;;;;;;;18.33;9.40;;;;;;;;;;10421672;28;20189;-73
2021/01/03 19:43:52;;;;;;;20.13;9.70;;;;;;;;;;10423434;28;20264;-72
2021/01/03 19:48:54;;;;;;;17.27;7.90;;;;;;;;;;10430342;28;20665;-71
2021/01/03 19:53:56;;;;;;;20.73;9.50;;;;;;;;;;10428286;28;20201;-72
2021/01/03 19:58:59;;;;;;;18.73;9.37;;;;;;;;;;10456275;28;20228;-72
2021/01/03 20:04:00;;;;;;;18.33;8.73;;;;;;;;;;10443974;28;20267;-72
2021/01/03 20:09:04;;;;;;;20.07;10.37;;;;;;;;;;10459390;28;20317;-71
2021/01/03 20:14:07;;;;;;;19.40;10.60;;;;;;;;;;10465210;28;20216;-72
2021/01/03 20:19:13;;;;;;;19.57;10.03;;;;;;;;;;10461425;28;20188;-72
2021/01/03 20:24:15;;;;;;;18.80;10.67;;;;;;;;;;10450366;28;20636;-72
2021/01/03 20:29:18;;;;;;;18.97;10.67;;;;;;;;;;10445341;28;20223;-73
2021/01/03 20:34:20;;;;;;;19.77;10.70;;;;;;;;;;10427941;28;20227;-71
2021/01/03 20:39:23;;;;;;;20.47;10.37;;;;;;;;;;10436480;28;20191;-72
2021/01/03 20:44:26;;;;;;;20.30;10.77;;;;;;;;;;10428537;28;20699;-74
2021/01/03 20:49:29;;;;;;;21.73;11.03;;;;;;;;;;10434462;28;20502;-73
2021/01/03 20:54:30;;;;;;;20.83;10.63;;;;;;;;;;10436820;28;20213;-72
2021/01/03 20:59:33;;;;;;;20.40;10.53;;;;;;;;;;10431116;28;20209;-72
2021/01/03 21:04:35;;;;;;;18.40;10.00;;;;;;;;;;10442178;28;20748;-73
2021/01/03 21:09:38;;;;;;;18.43;9.70;;;;;;;;;;10444353;28;20217;-72
2021/01/03 21:14:41;;;;;;;20.07;10.43;;;;;;;;;;10441051;28;20245;-72
2021/01/03 21:19:42;;;;;;;20.43;10.93;;;;;;;;;;10432761;28;20695;-73
2021/01/03 21:24:45;;;;;;;19.43;10.87;;;;;;;;;;10436652;28;20221;-71
2021/01/03 21:29:55;;;;;;;20.70;11.20;;;;;;;;;;10438515;28;20296;-72
2021/01/03 21:35:02;;;;;;;18.57;9.70;;;;;;;;;;10423782;28;20261;-70
2021/01/03 21:40:06;;;;;;;19.10;10.10;;;;;;;;;;10444678;28;20185;-74
2021/01/03 21:45:18;;;;;;;19.53;10.43;;;;;;;;;;10447664;28;20299;-71
2021/01/03 21:50:26;;;;;;;20.77;10.03;;;;;;;;;;10450729;28;20206;-72
2021/01/03 21:55:44;;;;;;;21.17;10.93;;;;;;;;;;10453642;28;20569;-71
2021/01/03 22:01:02;;;;;;;20.37;10.63;;;;;;;;;;10441703;28;20278;-71
2021/01/03 22:06:19;;;;;;;20.80;10.50;;;;;;;;;;10451632;28;20213;-71
2021/01/03 22:11:35;;;;;;;19.07;10.30;;;;;;;;;;10402068;28;20225;-72
2021/01/03 22:16:43;;;;;;;20.40;10.60;;;;;;;;;;10428566;28;20665;-72
2021/01/03 22:21:53;;;;;;;20.40;10.60;;;;;;;;;;10443187;28;20209;-71
2021/01/03 22:26:59;;;;;;;19.47;10.63;;;;;;;;;;10432090;28;20213;-72
2021/01/03 22:32:05;;;;;;;19.33;10.57;;;;;;;;;;10453821;28;20197;-72
2021/01/03 22:37:16;;;;;;;20.40;10.23;;;;;;;;;;10439424;28;20217;-69
2021/01/03 22:42:20;;;;;;;18.70;10.67;;;;;;;;;;10425963;28;20189;-71
2021/01/03 22:47:30;;;;;;;20.47;10.27;;;;;;;;;;10454433;28;20263;-73
2021/01/03 22:52:44;;;;;;;19.70;10.30;;;;;;;;;;10437705;28;20236;-73
2021/01/03 22:57:53;;;;;;;19.97;10.00;;;;;;;;;;10456363;28;20306;-71
2021/01/03 23:03:00;;;;;;;19.03;10.97;;;;;;;;;;10456580;28;20200;-72
2021/01/03 23:08:07;;;;;;;21.77;10.37;;;;;;;;;;10416388;28;20549;-71
2021/01/03 23:13:11;;;;;;;21.20;11.47;;;;;;;;;;10415810;28;20308;-71
2021/01/03 23:18:16;;;;;;;18.47;10.20;;;;;;;;;;10408158;28;20665;-71
2021/01/03 23:23:20;;;;;;;21.17;10.70;;;;;;;;;;10451737;28;20674;-71
2021/01/03 23:28:23;;;;;;;20.93;10.90;;;;;;;;;;10444511;28;20213;-69
2021/01/03 23:33:29;;;;;;;20.73;10.67;;;;;;;;;;10459110;28;20333;-70
2021/01/03 23:38:34;;;;;;;18.40;10.43;;;;;;;;;;10428611;28;20221;-70
2021/01/03 23:43:39;;;;;;;18.67;10.33;;;;;;;;;;10411891;28;20217;-71
2021/01/03 23:48:57;;;;;;;19.93;11.03;;;;;;;;;;10420714;28;20529;-72
2021/01/03 23:54:22;;;;;;;19.90;11.00;;;;;;;;;;10428113;28;20623;-72
2021/01/03 23:59:31;;;;;;;20.23;10.77;;;;;;;;;;10433150;28;20644;-69
